Time;durP1;ratioP1;P1;durP2;ratioP2;P2;SDS_P1;SDS_P2;PMS_P1;PMS_P2;Temp;Humidity;BMP_temperature;BMP_pressure;BME280_temperature;BME280_humidity;BME280_pressure;Samples;Min_cycle;Max_cycle;Signal;HPM_P1;HPM_P2
2023/09/14 00:01:03;;;;;;;22.90;13.30;;;;;;;19.36;55.93;100414.67;107987;1256;60270;-72
2023/09/14 00:03:30;;;;;;;23.30;13.40;;;;;;;19.33;55.86;100403.10;108041;1256;60196;-72
2023/09/14 00:05:59;;;;;;;21.50;13.10;;;;;;;19.31;55.87;100413.41;108091;1257;72672;-72
2023/09/14 00:08:30;;;;;;;21.40;13.50;;;;;;;19.26;55.86;100409.73;107931;1257;72177;-72
2023/09/14 00:10:59;;;;;;;17.90;12.70;;;;;;;19.21;55.99;100405.96;107794;1257;72717;-72
2023/09/14 00:13:26;;;;;;;18.90;12.90;;;;;;;19.14;56.40;100403.80;108006;1256;61633;-73
2023/09/14 00:15:54;;;;;;;19.20;12.00;;;;;;;19.08;56.45;100407.84;107955;1257;60454;-72
2023/09/14 00:18:22;;;;;;;20.30;12.90;;;;;;;19.07;56.33;100405.45;107907;1256;75329;-72
2023/09/14 00:20:52;;;;;;;23.50;12.90;;;;;;;19.04;56.58;100411.88;107842;1257;72787;-72
2023/09/14 00:23:21;;;;;;;24.70;13.10;;;;;;;19.01;56.49;100407.48;108110;1255;72342;-72
2023/09/14 00:25:49;;;;;;;22.10;13.10;;;;;;;19.01;56.47;100403.88;107929;1257;60409;-72
2023/09/14 00:28:18;;;;;;;20.20;12.20;;;;;;;19.01;56.53;100397.06;107796;1257;60406;-72
2023/09/14 00:30:46;;;;;;;21.80;12.60;;;;;;;18.97;56.60;100400.80;108040;1257;73821;-73
2023/09/14 00:33:14;;;;;;;17.60;12.00;;;;;;;18.95;56.83;100398.10;107719;1257;72107;-72
2023/09/14 00:35:45;;;;;;;18.00;12.60;;;;;;;18.90;56.94;100395.20;107941;1257;71418;-72
2023/09/14 00:38:13;;;;;;;21.90;13.30;;;;;;;18.84;57.21;100395.78;107912;1255;61816;-72
2023/09/14 00:40:41;;;;;;;18.70;13.00;;;;;;;18.80;57.19;100388.23;107862;1257;60345;-72
2023/09/14 00:43:08;;;;;;;18.70;12.30;;;;;;;18.75;57.57;100390.31;107807;1257;72780;-72
2023/09/14 00:45:36;;;;;;;19.90;12.70;;;;;;;18.71;57.80;100387.17;107856;1259;72509;-72
2023/09/14 00:48:04;;;;;;;19.70;11.80;;;;;;;18.64;58.04;100385.05;107948;1257;72703;-72
2023/09/14 00:50:32;;;;;;;19.50;12.50;;;;;;;18.55;58.25;100379.93;107920;1257;60472;-72
2023/09/14 00:53:02;;;;;;;18.40;13.10;;;;;;;18.50;58.48;100378.55;107924;1257;59741;-71
2023/09/14 00:55:32;;;;;;;19.20;12.60;;;;;;;18.45;58.55;100378.48;107778;1262;72548;-73
2023/09/14 00:57:59;;;;;;;21.70;12.00;;;;;;;18.38;58.72;100375.97;107704;1257;71611;-72
2023/09/14 01:00:27;;;;;;;20.30;12.60;;;;;;;18.31;58.83;100375.54;107988;1256;71690;-72
2023/09/14 01:02:55;;;;;;;18.00;11.80;;;;;;;18.25;59.14;100375.04;107676;1260;59324;-70
2023/09/14 01:05:28;;;;;;;18.20;12.20;;;;;;;18.22;59.18;100372.20;107941;1255;60490;-72
2023/09/14 01:07:57;;;;;;;20.90;12.20;;;;;;;18.21;59.15;100370.13;107985;1258;72889;-72
2023/09/14 01:10:27;;;;;;;18.20;11.80;;;;;;;18.19;59.22;100367.85;107855;1259;71594;-73
2023/09/14 01:12:57;;;;;;;15.20;11.70;;;;;;;18.20;59.25;100365.80;107736;1260;72023;-73
2023/09/14 01:15:25;;;;;;;18.20;11.60;;;;;;;18.18;59.37;100366.58;107743;1257;60527;-71
2023/09/14 01:17:57;;;;;;;17.70;12.10;;;;;;;18.18;59.33;100362.70;107954;1257;61098;-72
2023/09/14 01:20:54;;;;;;;20.20;12.40;;;;;;;18.17;59.29;100362.45;107762;1257;75096;-74
2023/09/14 01:23:30;;;;;;;20.20;12.40;;;;;;;18.16;59.20;100365.52;95063;1262;10002258;-81
2023/09/14 01:25:57;;;;;;;18.20;12.00;;;;;;;18.14;59.18;100368.00;100138;1257;10001810;-78
2023/09/14 01:28:25;;;;;;;18.20;11.80;;;;;;;18.13;59.13;100363.90;107711;1257;60580;-77
2023/09/14 01:30:53;;;;;;;17.00;11.90;;;;;;;18.12;59.12;100363.65;107843;1257;71995;-76
2023/09/14 01:33:24;;;;;;;18.00;12.10;;;;;;;18.12;59.18;100371.29;108427;1262;62587;-77
2023/09/14 01:36:00;;;;;;;15.50;11.80;;;;;;;18.11;59.25;100373.17;107925;1257;62038;-77
2023/09/14 01:38:28;;;;;;;18.10;12.40;;;;;;;18.09;59.27;100372.52;107625;1257;73849;-77
2023/09/14 01:40:56;;;;;;;20.30;12.10;;;;;;;18.06;59.50;100368.77;108432;1257;72722;-78
2023/09/14 01:43:23;;;;;;;17.30;12.20;;;;;;;18.06;59.51;100368.00;108054;1261;72682;-77
2023/09/14 01:45:51;;;;;;;19.20;12.00;;;;;;;18.06;59.55;100366.63;107643;1257;60312;-77
2023/09/14 01:48:19;;;;;;;17.20;11.90;;;;;;;18.08;59.56;100362.23;107567;1257;60434;-79
2023/09/14 01:50:47;;;;;;;20.10;12.10;;;;;;;18.09;59.56;100357.55;107599;1257;75014;-77
2023/09/14 01:53:15;;;;;;;19.20;12.70;;;;;;;18.07;59.98;100352.63;107932;1257;71701;-69
2023/09/14 01:55:43;;;;;;;17.40;12.40;;;;;;;18.08;60.03;100347.48;108467;1263;75138;-71
2023/09/14 01:58:14;;;;;;;19.50;12.60;;;;;;;18.08;59.90;100344.06;107616;1260;60355;-71
2023/09/14 02:00:41;;;;;;;18.30;12.00;;;;;;;18.00;59.94;100342.41;108013;1260;60240;-71
2023/09/14 02:03:09;;;;;;;14.00;11.40;;;;;;;17.93;60.11;100338.02;107669;1258;72936;-73
2023/09/14 02:05:39;;;;;;;17.00;11.00;;;;;;;17.78;60.60;100336.41;107582;1257;72865;-69
2023/09/14 02:08:07;;;;;;;18.40;11.80;;;;;;;17.63;60.82;100340.45;108082;1260;72823;-69
2023/09/14 02:10:35;;;;;;;18.80;11.20;;;;;;;17.50;61.04;100340.43;107730;1257;61843;-69
2023/09/14 02:13:02;;;;;;;15.10;11.70;;;;;;;17.39;61.27;100339.75;107872;1256;60590;-69
2023/09/14 02:15:30;;;;;;;15.60;10.90;;;;;;;17.27;61.60;100337.01;107620;1258;71588;-69
2023/09/14 02:17:58;;;;;;;16.00;10.80;;;;;;;17.18;61.95;100330.98;107848;1263;72719;-69
2023/09/14 02:20:25;;;;;;;18.60;11.50;;;;;;;17.10;62.17;100334.02;107812;1262;71672;-69
2023/09/14 02:22:54;;;;;;;14.90;10.70;;;;;;;17.04;62.37;100337.66;107704;1258;60519;-69
2023/09/14 02:25:22;;;;;;;17.50;10.60;;;;;;;17.01;62.50;100344.85;107667;1260;60469;-69
2023/09/14 02:27:49;;;;;;;18.00;11.20;;;;;;;17.03;62.46;100343.85;107694;1257;72542;-69
2023/09/14 02:30:17;;;;;;;16.80;9.90;;;;;;;17.05;62.47;100341.52;108475;1257;72839;-70
2023/09/14 02:32:45;;;;;;;17.20;10.50;;;;;;;17.03;62.47;100338.70;108042;1260;73056;-71
2023/09/14 02:35:12;;;;;;;15.50;10.60;;;;;;;16.97;62.63;100346.68;108207;1260;60402;-69
2023/09/14 02:37:40;;;;;;;18.70;11.10;;;;;;;16.95;62.78;100349.75;108254;1256;59681;-68
2023/09/14 02:40:08;;;;;;;17.80;11.10;;;;;;;16.98;62.82;100348.77;107605;1254;73816;-69
2023/09/14 02:42:37;;;;;;;16.30;10.80;;;;;;;17.02;62.75;100347.10;107782;1260;71923;-68
2023/09/14 02:45:05;;;;;;;16.90;11.00;;;;;;;17.05;62.72;100353.92;107779;1261;72748;-68
2023/09/14 02:47:33;;;;;;;18.10;11.70;;;;;;;17.06;62.50;100346.47;107679;1255;61517;-69
2023/09/14 02:50:04;;;;;;;15.10;11.20;;;;;;;17.06;62.48;100343.62;107759;1257;60414;-69
2023/09/14 02:52:33;;;;;;;19.90;11.30;;;;;;;17.05;62.40;100344.34;107785;1258;71940;-69
2023/09/14 02:55:01;;;;;;;14.50;10.90;;;;;;;17.05;62.33;100348.65;107507;1257;72813;-69
2023/09/14 02:57:28;;;;;;;16.20;11.50;;;;;;;17.05;62.30;100348.98;108778;1260;72355;-68
2023/09/14 02:59:58;;;;;;;17.00;10.90;;;;;;;17.05;62.26;100346.27;108304;1260;60700;-70
2023/09/14 03:02:26;;;;;;;18.30;10.70;;;;;;;17.05;62.37;100345.73;107771;1256;60366;-70
2023/09/14 03:04:53;;;;;;;16.80;11.20;;;;;;;17.05;62.38;100347.14;107550;1257;72675;-70
2023/09/14 03:07:21;;;;;;;19.10;11.10;;;;;;;17.05;62.63;100347.73;107667;1262;71034;-69
2023/09/14 03:09:52;;;;;;;17.30;11.60;;;;;;;17.03;62.61;100351.89;107846;1260;72808;-70
2023/09/14 03:12:20;;;;;;;16.10;11.20;;;;;;;17.02;62.62;100341.81;107608;1257;62549;-69
2023/09/14 03:14:47;;;;;;;15.00;10.50;;;;;;;17.01;62.60;100345.57;107564;1254;60411;-69
2023/09/14 03:17:15;;;;;;;16.10;11.10;;;;;;;16.98;62.63;100349.25;107665;1261;73855;-69
2023/09/14 03:19:43;;;;;;;16.60;11.20;;;;;;;16.96;62.63;100351.81;107572;1255;73545;-68
2023/09/14 03:22:11;;;;;;;16.00;10.70;;;;;;;16.85;62.71;100348.19;107513;1260;72657;-69
2023/09/14 03:24:39;;;;;;;15.40;10.90;;;;;;;16.75;62.99;100354.98;107714;1260;60173;-69
2023/09/14 03:27:07;;;;;;;18.00;10.50;;;;;;;16.73;63.23;100358.40;107825;1255;60283;-70
2023/09/14 03:29:35;;;;;;;14.30;10.60;;;;;;;16.71;63.21;100357.61;107878;1257;73953;-71
2023/09/14 03:32:03;;;;;;;14.80;10.90;;;;;;;16.69;63.33;100361.83;107803;1260;71646;-70
2023/09/14 03:34:31;;;;;;;15.00;11.10;;;;;;;16.69;63.30;100358.48;107673;1262;72653;-70
2023/09/14 03:36:58;;;;;;;15.60;10.60;;;;;;;16.70;63.40;100365.42;107867;1255;61026;-70
2023/09/14 03:39:26;;;;;;;15.00;10.80;;;;;;;16.73;63.55;100364.55;107651;1258;60306;-71
2023/09/14 03:41:54;;;;;;;14.90;10.20;;;;;;;16.74;63.67;100366.73;107667;1258;73065;-70
2023/09/14 03:44:22;;;;;;;17.50;11.40;;;;;;;16.74;63.72;100366.31;107723;1257;71777;-70
2023/09/14 03:46:50;;;;;;;13.50;10.30;;;;;;;16.73;63.93;100367.41;108031;1256;72709;-70
2023/09/14 03:49:17;;;;;;;16.30;10.50;;;;;;;16.74;64.15;100367.38;107770;1261;60780;-70
2023/09/14 03:51:45;;;;;;;15.60;10.30;;;;;;;16.69;64.51;100369.05;107806;1257;60435;-70
2023/09/14 03:54:13;;;;;;;13.30;9.80;;;;;;;16.70;64.72;100367.86;107441;1263;73858;-70
2023/09/14 03:56:41;;;;;;;14.70;9.90;;;;;;;16.80;64.63;100361.98;107661;1262;72767;-70
2023/09/14 03:59:08;;;;;;;16.80;10.20;;;;;;;16.83;64.66;100361.23;107735;1258;72225;-70
2023/09/14 04:01:36;;;;;;;15.50;11.20;;;;;;;16.88;64.56;100360.38;107719;1260;60481;-70
2023/09/14 04:04:04;;;;;;;14.90;10.60;;;;;;;16.92;64.48;100359.95;107842;1256;59413;-70
2023/09/14 04:06:32;;;;;;;16.40;10.70;;;;;;;16.99;64.26;100362.21;108174;1257;73867;-71
2023/09/14 04:09:00;;;;;;;14.20;10.00;;;;;;;17.01;64.11;100359.96;107625;1258;73155;-70
2023/09/14 04:11:27;;;;;;;15.20;9.70;;;;;;;17.06;64.11;100358.34;107511;1263;71363;-71
2023/09/14 04:13:56;;;;;;;15.30;10.40;;;;;;;17.09;63.99;100368.41;107636;1258;61888;-72
2023/09/14 04:16:28;;;;;;;12.90;10.10;;;;;;;17.14;63.94;100371.02;107662;1257;60354;-69
2023/09/14 04:19:00;;;;;;;14.60;10.70;;;;;;;17.17;63.77;100370.66;107641;1258;73903;-70
2023/09/14 04:21:30;;;;;;;15.40;10.60;;;;;;;17.22;63.73;100367.80;107665;1256;71732;-70
2023/09/14 04:23:57;;;;;;;15.50;9.70;;;;;;;17.31;63.77;100366.98;107594;1257;72710;-73
2023/09/14 04:26:26;;;;;;;13.60;10.10;;;;;;;17.37;63.55;100364.14;107570;1257;60562;-70
2023/09/14 04:28:55;;;;;;;15.70;10.30;;;;;;;17.38;63.34;100365.31;107643;1260;60289;-71
2023/09/14 04:31:23;;;;;;;14.10;10.50;;;;;;;17.33;63.37;100361.77;107764;1255;72760;-70
2023/09/14 04:33:51;;;;;;;13.50;10.20;;;;;;;17.31;63.42;100359.05;107750;1259;71978;-71
2023/09/14 04:36:18;;;;;;;13.10;10.00;;;;;;;17.33;63.49;100355.16;108787;1256;72722;-71
2023/09/14 04:38:46;;;;;;;17.00;10.10;;;;;;;17.35;63.43;100358.80;108575;1257;62995;-71
2023/09/14 04:41:14;;;;;;;15.40;10.70;;;;;;;17.38;63.50;100357.06;107585;1257;59478;-71
2023/09/14 04:43:42;;;;;;;16.20;11.30;;;;;;;17.41;63.42;100354.45;107636;1257;73801;-71
2023/09/14 04:46:09;;;;;;;13.30;10.20;;;;;;;17.42;63.49;100355.60;107661;1255;73186;-71
2023/09/14 04:48:38;;;;;;;14.60;9.70;;;;;;;17.51;63.58;100354.73;107485;1261;72284;-70
2023/09/14 04:51:06;;;;;;;13.60;9.90;;;;;;;17.61;63.44;100357.89;107642;1257;60487;-70
2023/09/14 04:53:34;;;;;;;16.60;10.60;;;;;;;17.70;63.48;100361.87;107728;1254;60300;-71
2023/09/14 04:56:04;;;;;;;14.30;10.20;;;;;;;17.77;63.24;100359.77;107631;1257;75309;-69
2023/09/14 04:58:33;;;;;;;13.80;10.00;;;;;;;17.84;63.04;100366.14;107581;1257;72338;-70
2023/09/14 05:01:01;;;;;;;14.40;10.30;;;;;;;17.90;62.98;100365.12;107798;1258;71255;-69
2023/09/14 05:03:29;;;;;;;11.90;9.90;;;;;;;17.97;62.72;100365.54;107529;1258;61737;-70
2023/09/14 05:05:58;;;;;;;12.70;9.70;;;;;;;17.96;62.70;100369.23;107505;1254;60423;-69
2023/09/14 05:08:25;;;;;;;14.50;10.10;;;;;;;17.98;62.67;100377.20;107575;1257;73075;-71
2023/09/14 05:10:56;;;;;;;14.90;10.20;;;;;;;18.07;62.50;100364.89;107847;1258;72705;-70
2023/09/14 05:13:24;;;;;;;13.70;10.40;;;;;;;18.12;62.34;100363.56;107529;1260;71733;-70
2023/09/14 05:15:52;;;;;;;16.00;10.40;;;;;;;18.17;62.24;100360.45;107582;1257;62387;-70
2023/09/14 05:18:24;;;;;;;;;;;;;;;18.24;62.12;100360.60;107614;1254;60368;-71
2023/09/14 05:20:52;;;;;;;14.60;10.60;;;;;;;18.25;62.23;100364.73;107719;1255;73893;-71
2023/09/14 05:23:19;;;;;;;15.70;10.50;;;;;;;18.27;62.22;100366.01;107564;1257;73746;-71
2023/09/14 05:25:47;;;;;;;16.90;10.40;;;;;;;18.34;62.15;100360.94;107602;1254;72681;-71
2023/09/14 05:28:15;;;;;;;14.40;10.60;;;;;;;18.45;61.91;100354.27;107611;1256;61697;-72
2023/09/14 05:30:43;;;;;;;14.10;10.60;;;;;;;18.54;61.87;100352.05;107726;1255;61250;-70
2023/09/14 05:33:13;;;;;;;14.40;10.30;;;;;;;18.64;61.79;100348.59;107664;1255;72553;-71
2023/09/14 05:35:43;;;;;;;15.50;10.20;;;;;;;18.78;61.55;100346.94;107777;1257;73984;-71
2023/09/14 05:38:12;;;;;;;14.70;10.20;;;;;;;18.93;61.41;100350.16;107812;1257;71405;-70
2023/09/14 05:40:40;;;;;;;14.10;10.30;;;;;;;19.09;61.09;100354.33;107663;1263;61799;-71
2023/09/14 05:43:08;;;;;;;16.30;10.40;;;;;;;19.22;60.85;100351.46;107645;1256;60343;-71
2023/09/14 05:45:36;;;;;;;16.20;9.90;;;;;;;19.35;60.52;100351.63;107908;1257;72044;-70
2023/09/14 05:48:05;;;;;;;14.40;10.70;;;;;;;19.48;60.41;100349.92;107826;1257;71628;-70
2023/09/14 05:50:36;;;;;;;17.80;10.50;;;;;;;19.61;59.69;100347.87;107541;1257;72732;-71
2023/09/14 05:53:05;;;;;;;14.80;10.40;;;;;;;19.73;59.44;100350.63;107771;1257;61110;-71
2023/09/14 05:55:32;;;;;;;15.70;9.90;;;;;;;19.86;59.21;100348.55;107717;1256;60335;-70
2023/09/14 05:58:00;;;;;;;13.30;9.50;;;;;;;19.99;58.75;100342.73;107911;1256;73950;-71
2023/09/14 06:00:28;;;;;;;15.40;10.10;;;;;;;20.10;58.33;100345.43;107617;1257;72685;-72
2023/09/14 06:02:56;;;;;;;14.80;10.20;;;;;;;20.23;57.87;100344.15;107850;1256;71762;-71
2023/09/14 06:05:24;;;;;;;15.60;10.40;;;;;;;20.39;57.57;100346.79;107721;1257;61647;-70
2023/09/14 06:07:53;;;;;;;15.90;10.70;;;;;;;20.52;56.91;100347.95;108008;1254;60416;-72
2023/09/14 06:10:23;;;;;;;19.90;10.90;;;;;;;20.63;56.66;100341.08;108006;1254;73128;-72
2023/09/14 06:12:51;;;;;;;14.30;10.50;;;;;;;20.76;56.14;100336.23;108005;1254;71480;-71
2023/09/14 06:15:19;;;;;;;15.60;10.40;;;;;;;20.87;55.67;100336.02;107775;1257;71462;-72
2023/09/14 06:29:56;;;;;;;14.70;10.40;;;;;;;21.58;53.80;100340.25;106133;1276;613006;-71
2023/09/14 06:32:23;;;;;;;15.50;9.90;;;;;;;22.03;52.76;100341.36;107171;1268;167640;-72
2023/09/14 06:34:49;;;;;;;16.10;9.30;;;;;;;22.13;52.32;100338.05;107403;1263;60193;-70
2023/09/14 06:37:18;;;;;;;13.50;9.70;;;;;;;22.22;51.92;100336.96;107284;1263;72433;-72
2023/09/14 06:39:45;;;;;;;14.50;9.50;;;;;;;22.29;51.63;100334.91;107374;1267;71972;-72
2023/09/14 06:42:12;;;;;;;14.10;9.00;;;;;;;22.38;51.28;100338.23;107273;1263;72625;-72
2023/09/14 06:44:39;;;;;;;13.90;9.40;;;;;;;22.49;50.88;100338.02;107331;1263;60206;-72
2023/09/14 06:47:06;;;;;;;14.60;10.20;;;;;;;22.59;50.72;100340.34;107297;1264;59510;-71
2023/09/14 06:49:33;;;;;;;16.50;10.50;;;;;;;22.69;50.46;100335.73;107460;1263;72295;-72
2023/09/14 06:52:00;;;;;;;16.90;10.50;;;;;;;22.79;50.00;100331.52;107972;1254;72788;-71
2023/09/14 06:54:27;;;;;;;15.90;10.60;;;;;;;22.90;49.77;100327.31;107948;1257;72657;-72
2023/09/14 06:56:54;;;;;;;13.00;10.10;;;;;;;22.99;49.64;100328.92;107856;1258;60541;-72
2023/09/14 06:59:21;;;;;;;13.40;9.60;;;;;;;23.09;49.47;100329.36;108009;1254;59541;-71
2023/09/14 07:01:50;;;;;;;15.20;9.70;;;;;;;23.17;49.11;100327.65;107958;1258;72785;-71
2023/09/14 07:04:17;;;;;;;14.30;10.20;;;;;;;23.23;48.78;100330.77;107934;1256;72589;-73
2023/09/14 07:06:45;;;;;;;14.30;8.90;;;;;;;23.33;48.85;100326.27;108058;1254;72523;-72
2023/09/14 07:09:12;;;;;;;15.70;9.80;;;;;;;23.44;48.64;100324.88;108096;1254;60131;-71
2023/09/14 07:11:39;;;;;;;15.10;9.90;;;;;;;23.52;48.26;100322.20;108084;1257;60075;-77
2023/09/14 07:14:08;;;;;;;12.50;9.10;;;;;;;23.62;48.23;100326.02;107966;1257;73051;-77
2023/09/14 07:16:35;;;;;;;15.70;9.80;;;;;;;23.75;48.26;100330.21;108018;1256;72604;-78
2023/09/14 07:19:02;;;;;;;11.20;9.10;;;;;;;23.92;47.81;100334.51;108088;1254;71468;-77
2023/09/14 07:21:34;;;;;;;13.20;8.90;;;;;;;24.05;47.34;100333.04;108001;1257;60253;-79
2023/09/14 07:24:03;;;;;;;12.70;9.30;;;;;;;24.20;46.97;100331.74;108364;1254;59516;-78
2023/09/14 07:26:30;;;;;;;12.20;9.00;;;;;;;24.30;46.87;100329.89;108128;1252;71531;-78
2023/09/14 07:28:58;;;;;;;13.70;8.70;;;;;;;24.36;46.70;100324.95;108124;1252;72363;-78
2023/09/14 07:31:25;;;;;;;13.70;9.00;;;;;;;24.43;46.64;100328.16;108004;1254;71362;-78
2023/09/14 07:33:52;;;;;;;12.10;8.50;;;;;;;24.54;46.66;100327.95;108016;1254;60129;-78
2023/09/14 07:36:19;;;;;;;12.10;9.30;;;;;;;24.68;46.46;100323.95;108031;1253;60120;-78
2023/09/14 07:38:45;;;;;;;13.40;9.40;;;;;;;24.87;46.29;100323.95;107988;1253;71611;-76
2023/09/14 07:41:16;;;;;;;12.20;8.60;;;;;;;25.07;46.17;100320.46;108026;1253;71544;-76
2023/09/14 07:43:43;;;;;;;12.00;8.20;;;;;;;25.26;45.78;100317.72;108064;1253;72715;-76
2023/09/14 07:46:10;;;;;;;12.00;8.50;;;;;;;25.40;45.24;100318.77;108081;1256;59631;-78
2023/09/14 07:48:37;;;;;;;12.60;8.00;;;;;;;25.44;44.82;100314.16;108157;1253;59219;-78
2023/09/14 07:51:04;;;;;;;12.40;8.80;;;;;;;25.58;44.79;100316.19;107940;1253;73195;-79
2023/09/14 07:53:31;;;;;;;13.20;8.50;;;;;;;25.73;44.61;100312.23;108118;1254;71462;-78
2023/09/14 07:55:58;;;;;;;10.30;8.60;;;;;;;25.95;43.70;100314.23;108042;1253;72526;-78
2023/09/14 07:58:26;;;;;;;13.20;8.70;;;;;;;26.15;43.85;100309.31;108037;1253;59288;-78
2023/09/14 08:00:53;;;;;;;12.00;8.50;;;;;;;26.36;43.33;100310.79;107992;1253;60714;-78
2023/09/14 08:03:19;;;;;;;9.60;8.20;;;;;;;26.56;43.01;100304.91;108165;1253;72781;-80
2023/09/14 08:05:46;;;;;;;11.00;8.50;;;;;;;26.74;42.49;100302.63;108115;1253;72624;-72
2023/09/14 08:08:17;;;;;;;10.80;8.00;;;;;;;26.91;42.09;100301.75;107948;1254;72642;-71
2023/09/14 08:10:52;;;;;;;11.40;8.50;;;;;;;27.05;42.01;100300.41;108083;1253;59592;-71
2023/09/14 08:13:19;;;;;;;13.50;8.50;;;;;;;27.15;41.78;100299.20;108110;1254;59624;-71
2023/09/14 08:15:46;;;;;;;11.50;8.70;;;;;;;27.13;41.39;100298.73;108035;1256;72819;-71
2023/09/14 08:18:13;;;;;;;11.30;7.90;;;;;;;27.04;41.16;100300.09;107962;1253;72701;-71
2023/09/14 08:20:46;;;;;;;11.90;8.70;;;;;;;26.94;41.60;100295.89;107937;1254;73700;-71
2023/09/14 08:23:15;;;;;;;11.30;8.00;;;;;;;26.85;41.72;100295.10;108038;1253;60724;-71
2023/09/14 08:25:46;;;;;;;12.80;8.40;;;;;;;26.81;41.86;100292.70;108067;1253;59684;-71
2023/09/14 08:28:16;;;;;;;10.00;7.70;;;;;;;26.83;42.25;100291.62;108051;1254;71840;-72
2023/09/14 08:30:43;;;;;;;11.20;7.40;;;;;;;26.83;42.29;100294.67;108087;1253;72590;-69
2023/09/14 08:33:11;;;;;;;10.60;7.20;;;;;;;26.84;42.16;100297.81;107955;1254;73949;-68
2023/09/14 08:35:42;;;;;;;11.10;8.50;;;;;;;26.87;41.98;100298.95;108098;1253;61610;-70
2023/09/14 08:38:09;;;;;;;11.10;8.40;;;;;;;26.92;42.07;100301.12;108077;1253;61292;-71
2023/09/14 08:40:37;;;;;;;9.60;8.00;;;;;;;27.02;41.89;100296.45;108155;1254;72872;-71
2023/09/14 08:43:05;;;;;;;11.50;7.70;;;;;;;27.16;41.47;100302.58;108064;1253;73135;-71
2023/09/14 08:45:32;;;;;;;11.20;7.50;;;;;;;27.32;41.61;100298.77;108021;1254;72720;-70
2023/09/14 08:48:00;;;;;;;8.90;7.30;;;;;;;27.51;41.48;100298.62;108084;1253;60269;-71
2023/09/14 08:50:29;;;;;;;11.50;7.70;;;;;;;27.65;40.89;100293.34;108053;1254;60149;-72
2023/09/14 08:52:55;;;;;;;11.20;8.20;;;;;;;27.81;40.47;100289.73;108112;1254;71706;-71
2023/09/14 08:55:23;;;;;;;11.50;8.10;;;;;;;27.95;41.06;100287.16;108117;1253;72730;-71
2023/09/14 08:57:51;;;;;;;11.60;8.10;;;;;;;27.99;41.15;100289.01;108157;1253;62802;-71
2023/09/14 09:00:18;;;;;;;12.00;7.90;;;;;;;27.98;40.90;100289.78;108041;1254;59672;-72
2023/09/14 09:02:49;;;;;;;10.10;7.70;;;;;;;27.95;40.52;100295.80;107930;1253;59477;-71
2023/09/14 09:05:17;;;;;;;9.00;7.20;;;;;;;27.99;40.62;100295.05;108221;1254;65778;-71
2023/09/14 09:07:44;;;;;;;11.50;7.90;;;;;;;28.09;40.61;100296.28;108015;1253;64204;-71
2023/09/14 09:10:22;;;;;;;11.30;8.10;;;;;;;28.19;40.41;100293.05;108077;1254;64127;-71
2023/09/14 09:12:50;;;;;;;13.00;8.20;;;;;;;28.27;39.95;100289.73;108105;1253;59649;-71
2023/09/14 09:15:17;;;;;;;12.10;7.70;;;;;;;28.35;39.98;100288.73;108148;1256;60312;-70
2023/09/14 09:17:44;;;;;;;9.90;7.30;;;;;;;28.44;40.14;100291.10;107999;1254;64397;-70
2023/09/14 09:20:19;;;;;;;9.50;6.80;;;;;;;28.57;40.09;100287.48;108105;1254;64090;-70
2023/09/14 09:22:47;;;;;;;10.00;7.40;;;;;;;28.67;39.44;100288.70;108053;1254;72708;-70
2023/09/14 09:25:14;;;;;;;11.10;7.20;;;;;;;28.62;39.28;100287.57;108077;1253;59612;-70
2023/09/14 09:27:41;;;;;;;10.30;7.50;;;;;;;28.67;39.24;100286.50;108084;1254;60138;-70
2023/09/14 09:30:10;;;;;;;11.00;6.70;;;;;;;28.80;39.24;100285.44;108053;1253;64147;-72
2023/09/14 09:32:38;;;;;;;10.50;6.60;;;;;;;28.92;38.95;100284.94;107988;1253;64629;-71
2023/09/14 09:35:25;;;;;;;12.00;7.20;;;;;;;29.05;38.76;100282.08;108007;1254;64158;-72
2023/09/14 09:37:54;;;;;;;11.10;6.50;;;;;;;29.20;38.28;100279.53;108246;1254;59604;-71
2023/09/14 09:40:25;;;;;;;10.80;6.70;;;;;;;29.34;37.86;100274.67;108076;1253;59653;-71
2023/09/14 09:42:55;;;;;;;;;;;;;;;29.51;37.35;100272.80;108136;1256;64628;-70
2023/09/14 09:45:24;;;;;;;7.60;5.80;;;;;;;29.67;37.18;100273.45;108091;1254;64934;-70
2023/09/14 09:47:51;;;;;;;9.40;6.30;;;;;;;29.78;37.19;100273.44;107983;1254;62668;-70
2023/09/14 09:50:21;;;;;;;9.30;6.90;;;;;;;29.86;36.97;100269.44;107947;1253;59571;-69
2023/09/14 09:52:48;;;;;;;8.30;5.90;;;;;;;29.89;36.37;100271.64;108088;1253;59556;-69
2023/09/14 09:55:25;;;;;;;9.20;6.20;;;;;;;29.87;36.26;100268.17;108145;1256;64312;-69
2023/09/14 09:57:55;;;;;;;7.40;5.90;;;;;;;29.87;36.45;100271.94;108104;1253;64238;-70
2023/09/14 10:00:35;;;;;;;8.50;6.10;;;;;;;29.88;36.61;100270.52;108365;1254;64267;-70
2023/09/14 10:03:03;;;;;;;8.60;6.30;;;;;;;29.94;36.43;100264.61;108074;1253;59505;-70
2023/09/14 10:05:31;;;;;;;8.90;5.80;;;;;;;30.03;36.48;100263.11;108106;1254;59257;-70
2023/09/14 10:08:04;;;;;;;8.30;5.80;;;;;;;30.15;36.06;100262.92;107998;1254;63117;-70
2023/09/14 10:10:32;;;;;;;9.70;6.50;;;;;;;30.27;35.61;100263.46;107913;1254;64161;-71
2023/09/14 10:12:59;;;;;;;7.30;6.40;;;;;;;30.36;35.17;100261.31;108021;1253;64130;-70
2023/09/14 10:15:27;;;;;;;7.90;5.70;;;;;;;30.39;35.28;100258.78;107926;1254;59589;-69
2023/09/14 10:17:56;;;;;;;8.60;6.30;;;;;;;30.42;35.16;100256.89;108043;1254;59528;-69
2023/09/14 10:20:26;;;;;;;9.00;6.00;;;;;;;30.41;35.36;100259.02;108093;1253;64301;-70
2023/09/14 10:22:53;;;;;;;8.70;5.90;;;;;;;30.45;35.29;100254.73;107885;1254;62830;-71
2023/09/14 10:25:20;;;;;;;8.30;5.60;;;;;;;30.50;35.16;100251.42;107965;1256;64018;-70
2023/09/14 10:27:48;;;;;;;11.20;5.90;;;;;;;30.56;35.14;100246.44;108106;1254;60075;-70
2023/09/14 10:30:19;;;;;;;8.30;6.20;;;;;;;30.55;34.95;100245.64;107990;1253;59898;-70
2023/09/14 10:32:53;;;;;;;11.10;6.40;;;;;;;30.49;34.95;100245.60;108033;1253;64439;-70
2023/09/14 10:35:20;;;;;;;8.90;6.50;;;;;;;30.50;35.20;100247.41;108037;1254;64194;-71
2023/09/14 10:37:47;;;;;;;9.20;6.20;;;;;;;30.59;35.39;100248.86;108012;1253;63794;-71
2023/09/14 10:40:17;;;;;;;8.50;6.30;;;;;;;30.70;34.87;100245.17;108124;1256;60505;-72
2023/09/14 10:42:45;;;;;;;9.10;6.40;;;;;;;30.79;34.86;100247.13;108041;1253;60252;-71
2023/09/14 10:45:13;;;;;;;7.60;5.90;;;;;;;30.86;34.59;100249.92;108083;1254;65224;-71
2023/09/14 10:47:43;;;;;;;8.60;6.00;;;;;;;30.91;34.22;100245.66;108170;1253;63857;-72
2023/09/14 10:50:10;;;;;;;11.70;6.00;;;;;;;30.94;34.40;100244.05;108169;1253;65088;-73
2023/09/14 10:52:37;;;;;;;8.20;6.20;;;;;;;31.03;34.48;100240.92;107972;1254;60300;-75
2023/09/14 10:55:08;;;;;;;8.90;5.90;;;;;;;31.13;34.28;100238.40;108133;1254;60440;-73
2023/09/14 10:57:40;;;;;;;7.60;5.60;;;;;;;31.24;34.49;100238.97;107974;1256;65590;-74
2023/09/14 11:00:08;;;;;;;8.00;6.40;;;;;;;31.34;34.16;100240.02;108008;1254;64089;-77
2023/09/14 11:02:52;;;;;;;7.20;5.50;;;;;;;31.41;33.89;100234.28;107990;1253;63814;-74
2023/09/14 11:05:42;;;;;;;8.40;6.40;;;;;;;31.48;33.75;100234.70;107936;1254;60278;-75
2023/09/14 11:08:10;;;;;;;;;;;;;;;31.55;33.80;100228.09;108004;1254;60318;-74
2023/09/14 11:10:38;;;;;;;8.60;5.90;;;;;;;31.59;33.96;100227.27;108070;1253;65245;-74
2023/09/14 11:13:19;;;;;;;10.20;6.00;;;;;;;31.63;34.11;100225.49;108035;1254;63344;-73
2023/09/14 11:15:56;;;;;;;8.50;6.00;;;;;;;31.70;34.09;100219.75;107939;1253;64148;-72
2023/09/14 11:18:45;;;;;;;7.90;5.40;;;;;;;31.75;33.71;100221.44;107978;1254;60427;-70
2023/09/14 11:21:43;;;;;;;9.30;5.70;;;;;;;31.77;33.30;100220.39;108039;1254;60872;-71
2023/09/14 11:24:10;;;;;;;8.90;5.40;;;;;;;31.77;33.59;100218.26;108056;1256;63690;-71
2023/09/14 11:26:44;;;;;;;8.20;5.10;;;;;;;31.77;33.84;100213.53;108042;1253;63891;-71